Terminal Aerodrome Forecast
Issued by NWS Sioux Falls, SD

Home | Current Version | Previous Version | Text Only | Print | Product List | Glossary Off
Versions: 1 2 3 4 5 6 7 8 9 10 11 12 13 14 15 16 17 18 19 20 21 22 23 24 25 26 27 28 29 30 31 32 33 34 35 36 37 38 39 40

000
FTUS43 KFSD 240416 AAA
TAFSUX
TAF AMD
KSUX 240416Z 2404/2424 14010KT P6SM -SHRA VCTS OVC045CB
      TEMPO 2404/2407 5SM -TSRA
     FM240700 06007KT 4SM SHRA VCTS OVC025CB
     FM241200 05007KT 4SM -SHRA OVC008
     FM241700 02014G22KT 4SM SHRA OVC008=

USA.gov is the U.S. government's official web portal to all federal, state and local government web resources and services.